createdAt,value
2022-12-23T00:00:57.934Z,58.92
2022-12-23T00:04:59.679Z,61.00
2022-12-23T00:09:01.719Z,63.20
2022-12-23T00:13:22.508Z,55.58
2022-12-23T00:17:24.559Z,58.63
2022-12-23T00:21:26.364Z,58.05
2022-12-23T00:25:40.348Z,61.58
2022-12-23T00:29:42.456Z,55.33
2022-12-23T00:33:46.472Z,58.88
2022-12-23T00:37:48.216Z,59.28
2022-12-23T00:42:08.701Z,58.03
2022-12-23T00:46:10.449Z,53.30
2022-12-23T00:50:12.411Z,56.20
2022-12-23T00:54:14.216Z,56.38
2022-12-23T00:58:17.541Z,55.47
2022-12-23T01:02:37.835Z,62.38
2022-12-23T01:06:40.102Z,69.25
2022-12-23T01:10:41.827Z,62.00
2022-12-23T01:14:43.794Z,71.50
2022-12-23T01:18:45.469Z,64.35
2022-12-23T01:22:47.719Z,70.03
2022-12-23T01:26:49.378Z,67.28
2022-12-23T01:30:51.319Z,66.40
2022-12-23T01:34:53.167Z,63.47
2022-12-23T01:38:58.096Z,72.07
2022-12-23T01:42:59.826Z,67.95
2022-12-23T01:47:03.908Z,60.60
2022-12-23T01:51:16.097Z,72.60
2022-12-23T01:55:25.329Z,62.92
2022-12-23T01:59:46.195Z,68.85
2022-12-23T02:03:50.278Z,60.03
2022-12-23T02:08:12.373Z,61.45
2022-12-23T02:12:41.388Z,71.00
2022-12-23T02:16:53.744Z,64.95
2022-12-23T02:21:27.532Z,72.68
2022-12-23T02:25:41.696Z,68.78
2022-12-23T02:30:05.541Z,72.60
2022-12-23T02:34:38.423Z,65.90
2022-12-23T02:39:05.957Z,62.42
2022-12-23T02:43:24.283Z,62.40
2022-12-23T02:47:38.047Z,59.28
2022-12-23T02:51:44.350Z,64.13
2022-12-23T02:55:49.097Z,58.58
2022-12-23T02:59:52.095Z,65.75
2022-12-23T03:03:54.383Z,63.05
2022-12-23T03:08:00.222Z,65.63
2022-12-23T03:12:17.274Z,68.35
2022-12-23T03:16:56.674Z,63.33
2022-12-23T03:25:22.011Z,54.53
2022-12-23T03:29:40.821Z,59.53
2022-12-23T03:33:47.993Z,57.90
2022-12-23T03:37:53.212Z,65.20
2022-12-23T03:42:06.333Z,56.95
2022-12-23T03:46:12.989Z,66.82
2022-12-23T03:50:19.405Z,56.50
2022-12-23T03:54:27.987Z,55.45
2022-12-23T03:58:42.400Z,56.03
2022-12-23T04:03:03.344Z,54.08
2022-12-23T04:07:11.142Z,47.83
2022-12-23T04:11:13.367Z,58.70
2022-12-23T04:15:20.810Z,54.97
2022-12-23T04:19:23.258Z,48.85
2022-12-23T04:23:24.910Z,52.08
2022-12-23T04:27:26.927Z,58.33
2022-12-23T04:31:28.730Z,62.45
2022-12-23T04:35:30.859Z,60.17
2022-12-23T04:39:32.553Z,57.63
2022-12-23T04:43:34.547Z,57.08
2022-12-23T04:47:36.229Z,52.17
2022-12-23T04:51:38.205Z,52.72
2022-12-23T04:55:39.896Z,74.38
2022-12-23T04:59:42.180Z,60.10
2022-12-23T05:03:43.915Z,62.92
2022-12-23T05:07:49.612Z,56.40
2022-12-23T05:11:51.499Z,44.10
2022-12-23T05:15:54.391Z,44.13
2022-12-23T05:19:56.374Z,49.28
2022-12-23T05:23:58.071Z,47.95
2022-12-23T05:28:00.058Z,45.00
2022-12-23T05:32:01.814Z,45.30
2022-12-23T05:36:04.673Z,42.40
2022-12-23T05:40:06.996Z,48.67
2022-12-23T05:44:09.267Z,44.33
2022-12-23T05:48:11.084Z,41.05
2022-12-23T05:52:13.137Z,45.05
2022-12-23T05:56:14.846Z,44.03
2022-12-23T06:00:17.294Z,41.20
2022-12-23T06:04:19.062Z,41.25
2022-12-23T06:08:21.306Z,45.17
2022-12-23T06:12:23.076Z,44.35
2022-12-23T06:16:25.096Z,44.38
2022-12-23T06:20:26.783Z,45.72
2022-12-23T06:24:28.727Z,44.30
2022-12-23T06:28:30.480Z,46.38
2022-12-23T06:32:37.935Z,45.72
2022-12-23T06:36:40.364Z,46.15
2022-12-23T06:40:42.340Z,43.97
2022-12-23T06:44:44.071Z,45.42
2022-12-23T06:48:46.020Z,43.72
2022-12-23T06:52:49.002Z,45.45
2022-12-23T06:56:51.054Z,43.22
2022-12-23T07:00:52.750Z,44.03
2022-12-23T07:04:54.710Z,45.80
2022-12-23T07:08:56.391Z,42.70
2022-12-23T07:12:58.362Z,44.22
2022-12-23T07:17:00.122Z,43.45
2022-12-23T07:21:03.199Z,41.35
2022-12-23T07:25:05.343Z,42.08
2022-12-23T07:29:07.711Z,42.40
2022-12-23T07:33:09.435Z,42.60
2022-12-23T07:37:11.483Z,43.10
2022-12-23T07:41:13.278Z,41.50
2022-12-23T07:45:16.177Z,43.08
2022-12-23T07:49:18.039Z,43.45
2022-12-23T07:53:20.349Z,44.33
2022-12-23T07:57:22.002Z,43.75
2022-12-23T08:01:24.096Z,44.05
2022-12-23T08:05:26.062Z,42.83
2022-12-23T08:09:28.065Z,42.92
2022-12-23T08:13:31.714Z,41.33
2022-12-23T08:17:33.744Z,43.97
2022-12-23T08:21:35.463Z,40.83
2022-12-23T08:25:37.418Z,42.60
2022-12-23T08:29:40.522Z,43.95
2022-12-23T08:33:45.450Z,43.38
2022-12-23T08:37:47.158Z,45.97
2022-12-23T08:41:49.323Z,39.90
2022-12-23T08:45:51.320Z,42.83
2022-12-23T08:49:53.263Z,37.72
2022-12-23T08:54:00.635Z,41.58
2022-12-23T08:58:03.285Z,40.85
2022-12-23T09:02:05.081Z,42.42
2022-12-23T09:06:13.266Z,36.88
2022-12-23T09:10:15.076Z,38.65
2022-12-23T09:14:17.113Z,36.72
2022-12-23T09:18:18.887Z,42.28
2022-12-23T09:22:20.865Z,40.55
2022-12-23T09:26:25.669Z,43.15
2022-12-23T09:30:27.829Z,39.22
2022-12-23T09:34:29.490Z,47.88
2022-12-23T09:38:31.655Z,43.88
2022-12-23T09:42:51.830Z,41.80
2022-12-23T09:46:58.345Z,40.65
2022-12-23T09:51:01.954Z,40.85
2022-12-23T09:55:04.322Z,36.72
2022-12-23T09:59:14.741Z,39.42
2022-12-23T10:03:26.165Z,39.90
2022-12-23T10:07:39.938Z,39.65
2022-12-23T10:11:44.969Z,42.58
2022-12-23T10:15:50.470Z,40.03
2022-12-23T10:19:54.094Z,43.75
2022-12-23T10:23:55.922Z,89.18
2022-12-23T10:27:57.869Z,40.83
2022-12-23T10:32:11.661Z,61.65
2022-12-23T10:36:32.063Z,56.17
2022-12-23T10:41:08.961Z,48.47
2022-12-23T10:45:49.389Z,49.05
2022-12-23T10:50:14.345Z,71.63
2022-12-23T10:54:20.270Z,52.45
2022-12-23T10:58:22.606Z,52.40
2022-12-23T11:02:47.277Z,50.70
2022-12-23T11:07:18.110Z,46.80
2022-12-23T11:11:14.512Z,48.80
2022-12-23T11:15:29.232Z,50.33
2022-12-23T11:19:31.070Z,55.15
2022-12-23T11:23:36.555Z,51.47
2022-12-23T11:27:44.493Z,48.13
2022-12-23T11:31:46.752Z,50.17
2022-12-23T11:36:00.521Z,49.35
2022-12-23T11:40:14.676Z,51.80
2022-12-23T11:44:32.857Z,53.40
2022-12-23T11:48:34.511Z,51.60
2022-12-23T11:52:36.761Z,49.95
2022-12-23T11:56:40.351Z,48.40
2022-12-23T12:00:55.581Z,48.67
2022-12-23T12:05:05.261Z,55.25
2022-12-23T12:09:07.345Z,51.97
2022-12-23T12:13:28.311Z,61.63
2022-12-23T12:17:45.224Z,57.10
2022-12-23T12:21:49.390Z,55.50
2022-12-23T12:25:57.323Z,54.92
2022-12-23T12:30:08.431Z,57.83
2022-12-23T12:34:33.902Z,55.88
2022-12-23T12:38:39.143Z,58.75
2022-12-23T12:42:44.136Z,60.78
2022-12-23T12:46:58.748Z,59.20
2022-12-23T12:51:27.285Z,58.10
2022-12-23T12:55:34.824Z,52.65
2022-12-23T12:59:38.746Z,59.22
2022-12-23T13:04:12.539Z,60.20
2022-12-23T13:08:20.712Z,67.35
2022-12-23T13:12:46.071Z,65.05
2022-12-23T13:17:05.178Z,62.70
2022-12-23T13:25:26.888Z,65.80
2022-12-23T13:29:58.265Z,70.55
2022-12-23T13:34:19.150Z,69.35
2022-12-23T13:38:23.754Z,69.70
2022-12-23T13:42:33.093Z,68.90
2022-12-23T13:47:15.669Z,66.53
2022-12-23T13:51:35.871Z,69.13
2022-12-23T13:56:19.511Z,67.55
2022-12-23T14:00:30.681Z,69.25
2022-12-23T14:04:58.735Z,76.10
2022-12-23T14:09:02.978Z,70.23
2022-12-23T14:13:08.717Z,71.70
2022-12-23T14:17:30.348Z,72.88
2022-12-23T14:21:41.183Z,74.75
2022-12-23T14:25:55.396Z,65.53
2022-12-23T14:30:22.380Z,75.75
2022-12-23T14:34:26.427Z,70.47
2022-12-23T14:38:32.769Z,68.88
2022-12-23T14:42:43.005Z,70.20
2022-12-23T14:46:45.528Z,68.78
2022-12-23T14:50:59.491Z,63.60
2022-12-23T14:55:31.944Z,64.50
2022-12-23T14:59:48.168Z,68.95
2022-12-23T15:03:57.538Z,65.80
2022-12-23T15:08:04.353Z,63.45
2022-12-23T15:12:16.025Z,61.50
2022-12-23T15:16:18.806Z,62.03
2022-12-23T15:20:23.845Z,64.43
2022-12-23T15:24:26.174Z,59.38
2022-12-23T15:28:39.353Z,62.63
2022-12-23T15:32:44.340Z,58.90
2022-12-23T15:36:48.006Z,55.85
2022-12-23T15:41:01.659Z,59.25
2022-12-23T15:45:23.368Z,64.00
2022-12-23T15:49:25.373Z,59.67
2022-12-23T15:53:34.876Z,56.00
2022-12-23T15:57:50.105Z,58.42
2022-12-23T16:01:53.291Z,57.03
2022-12-23T16:06:05.090Z,54.28
2022-12-23T16:10:21.833Z,57.10
2022-12-23T16:14:27.769Z,61.25
2022-12-23T16:18:32.214Z,55.40
2022-12-23T16:22:36.173Z,60.25
2022-12-23T16:26:42.489Z,59.45
2022-12-23T16:30:49.476Z,55.58
2022-12-23T16:34:51.642Z,56.50
2022-12-23T16:39:00.544Z,62.88
2022-12-23T16:43:02.453Z,64.07
2022-12-23T16:47:12.754Z,58.58
2022-12-23T16:51:20.235Z,62.83
2022-12-23T16:55:21.940Z,57.65
2022-12-23T16:59:25.877Z,59.03
2022-12-23T17:03:27.947Z,58.65
2022-12-23T17:07:29.574Z,56.05
2022-12-23T17:11:37.820Z,57.03
2022-12-23T17:15:39.661Z,62.15
2022-12-23T17:19:42.478Z,67.53
2022-12-23T17:23:44.236Z,61.70
2022-12-23T17:27:46.160Z,82.70
2022-12-23T17:31:49.071Z,64.45
2022-12-23T17:35:51.130Z,69.50
2022-12-23T17:39:52.902Z,65.28
2022-12-23T17:43:55.337Z,62.45
2022-12-23T17:47:57.618Z,66.72
2022-12-23T17:51:59.580Z,63.45
2022-12-23T17:56:01.212Z,61.17
2022-12-23T18:00:03.899Z,65.97
2022-12-23T18:04:13.593Z,56.28
2022-12-23T18:08:16.927Z,64.03
2022-12-23T18:12:37.400Z,62.17
2022-12-23T18:16:39.615Z,59.40
2022-12-23T18:20:42.876Z,57.08
2022-12-23T18:24:46.029Z,59.15
2022-12-23T18:28:48.028Z,58.17
2022-12-23T18:32:49.879Z,59.28
2022-12-23T18:36:52.324Z,57.67
2022-12-23T18:40:56.531Z,51.15
2022-12-23T18:44:58.207Z,50.70
2022-12-23T18:49:00.229Z,47.42
2022-12-23T18:53:02.777Z,45.35
2022-12-23T18:57:05.184Z,46.83
2022-12-23T19:01:14.751Z,48.42
2022-12-23T19:05:23.544Z,48.45
2022-12-23T19:09:26.192Z,45.70
2022-12-23T19:13:28.073Z,43.63
2022-12-23T19:17:30.021Z,46.72
2022-12-23T19:21:31.660Z,50.45
2022-12-23T19:25:34.127Z,47.17
2022-12-23T19:29:35.993Z,49.80
2022-12-23T19:33:38.788Z,49.97
2022-12-23T19:37:41.634Z,47.40
2022-12-23T19:41:43.801Z,51.70
2022-12-23T19:45:45.468Z,49.22
2022-12-23T19:49:47.442Z,51.42
2022-12-23T19:53:51.588Z,49.05
2022-12-23T19:57:53.500Z,46.80
2022-12-23T20:01:55.273Z,53.65
2022-12-23T20:05:57.329Z,51.00
2022-12-23T20:09:59.203Z,41.22
2022-12-23T20:14:02.176Z,43.45
2022-12-23T20:18:04.058Z,46.67
2022-12-23T20:22:05.977Z,69.35
2022-12-23T20:26:08.143Z,63.42
2022-12-23T20:30:11.195Z,76.25
2022-12-23T20:34:17.272Z,62.97
2022-12-23T20:38:19.766Z,57.22
2022-12-23T20:42:21.723Z,39.40
2022-12-23T20:46:23.821Z,38.45
2022-12-23T20:50:25.573Z,29.92
2022-12-23T20:54:32.725Z,43.78
2022-12-23T20:58:57.799Z,56.95
2022-12-23T21:03:03.827Z,56.30
2022-12-23T21:07:08.704Z,58.40
2022-12-23T21:11:10.697Z,60.50
2022-12-23T21:15:12.479Z,65.35
2022-12-23T21:19:20.529Z,50.10
2022-12-23T21:23:22.212Z,50.77
2022-12-23T21:27:24.190Z,89.10
2022-12-23T21:31:27.516Z,51.78
2022-12-23T21:35:29.361Z,59.60
2022-12-23T21:39:31.547Z,46.38
2022-12-23T21:43:33.921Z,47.17
2022-12-23T21:47:36.308Z,50.13
2022-12-23T21:51:40.639Z,69.72
2022-12-23T21:55:43.297Z,85.28
2022-12-23T21:59:45.206Z,67.10
2022-12-23T22:03:49.247Z,59.28
2022-12-23T22:07:51.165Z,63.42
2022-12-23T22:11:52.861Z,65.55
2022-12-23T22:15:54.877Z,66.28
2022-12-23T22:19:56.805Z,74.85
2022-12-23T22:23:59.529Z,80.20
2022-12-23T22:28:02.915Z,67.32
2022-12-23T22:32:05.112Z,50.20
2022-12-23T22:36:09.238Z,51.05
2022-12-23T22:40:11.457Z,62.75
2022-12-23T22:44:13.621Z,52.30
2022-12-23T22:48:15.547Z,57.75
2022-12-23T22:52:17.579Z,62.38
2022-12-23T22:56:20.891Z,51.78
2022-12-23T23:00:22.648Z,55.30
2022-12-23T23:04:24.591Z,47.03
2022-12-23T23:08:27.272Z,49.20
2022-12-23T23:12:29.268Z,48.58
2022-12-23T23:16:31.767Z,49.05
2022-12-23T23:20:33.459Z,48.72
2022-12-23T23:24:35.439Z,49.80
2022-12-23T23:28:39.323Z,52.80
2022-12-23T23:32:41.417Z,59.85
2022-12-23T23:36:43.246Z,59.75
2022-12-23T23:40:47.731Z,43.60
2022-12-23T23:44:49.385Z,42.85
2022-12-23T23:48:51.352Z,45.55
2022-12-23T23:52:52.993Z,51.20
2022-12-23T23:56:55.043Z,47.63
